createdAt,value
2018-12-01T00:00:43.850Z,99.99
2018-12-01T00:01:44.093Z,99.99
2018-12-01T00:02:44.079Z,99.99
2018-12-01T00:03:43.845Z,99.99
2018-12-01T00:04:43.822Z,99.99
2018-12-01T00:05:44.079Z,99.99
2018-12-01T00:06:43.808Z,99.99
2018-12-01T00:07:44.064Z,99.99
2018-12-01T00:08:43.804Z,99.99
2018-12-01T00:09:43.786Z,99.99
2018-12-01T00:10:44.043Z,99.99
2018-12-01T00:11:44.023Z,99.99
2018-12-01T00:12:44.021Z,99.99
2018-12-01T00:13:44.006Z,99.99
2018-12-01T00:14:44.004Z,99.99
2018-12-01T00:15:43.995Z,99.99
2018-12-01T00:16:43.994Z,99.99
2018-12-01T00:17:43.739Z,99.99
2018-12-01T00:18:43.768Z,99.99
2018-12-01T00:19:43.974Z,99.99
2018-12-01T00:20:43.966Z,99.99
2018-12-01T00:21:43.706Z,99.99
2018-12-01T00:22:43.704Z,99.99
2018-12-01T00:23:43.694Z,99.99
2018-12-01T00:24:43.939Z,99.99
2018-12-01T00:25:43.686Z,99.99
2018-12-01T00:26:43.678Z,99.99
2018-12-01T00:27:43.674Z,99.99
2018-12-01T00:28:43.914Z,99.99
2018-12-01T00:29:43.907Z,99.99
2018-12-01T00:30:43.659Z,99.99
2018-12-01T00:31:43.891Z,99.99
2018-12-01T00:32:43.886Z,99.99
2018-12-01T00:33:43.875Z,99.99
2018-12-01T00:34:43.875Z,99.99
2018-12-01T00:35:43.619Z,99.99
2018-12-01T00:36:43.854Z,99.99
2018-12-01T00:37:43.629Z,99.99
2018-12-01T00:38:43.604Z,99.99
2018-12-01T00:39:43.840Z,99.99
2018-12-01T00:40:43.582Z,99.99
2018-12-01T00:41:43.630Z,99.99
2018-12-01T00:42:43.829Z,99.99
2018-12-01T00:43:43.818Z,99.99
2018-12-01T00:44:43.551Z,99.99
2018-12-01T00:45:43.808Z,99.99
2018-12-01T00:46:43.807Z,99.99
2018-12-01T00:47:43.528Z,99.99
2018-12-01T00:48:43.526Z,99.99
2018-12-01T00:49:43.769Z,99.99
2018-12-01T00:50:43.764Z,99.99
2018-12-01T00:51:43.501Z,99.99
2018-12-01T00:52:43.500Z,99.99
2018-12-01T00:53:43.744Z,99.99
2018-12-01T00:54:43.494Z,99.99
2018-12-01T00:55:43.725Z,99.99
2018-12-01T00:56:43.715Z,99.99
2018-12-01T00:57:43.753Z,99.99
2018-12-01T00:58:43.464Z,99.99
2018-12-01T00:59:43.453Z,99.99
2018-12-01T01:00:43.464Z,99.99
2018-12-01T01:01:43.682Z,99.99
2018-12-01T01:02:43.676Z,99.99
2018-12-01T01:03:43.661Z,99.99
2018-12-01T01:04:43.675Z,99.99
2018-12-01T01:05:43.408Z,99.99
2018-12-01T01:06:43.643Z,99.99
2018-12-01T01:07:43.392Z,99.99
2018-12-01T01:08:43.399Z,99.99
2018-12-01T01:09:43.629Z,99.99
2018-12-01T01:10:43.398Z,99.99
2018-12-01T01:11:43.604Z,99.99
2018-12-01T01:12:43.351Z,99.99
2018-12-01T01:13:43.341Z,99.99
2018-12-01T01:14:43.579Z,99.99
2018-12-01T01:15:43.581Z,99.99
2018-12-01T01:16:43.576Z,99.99
2018-12-01T01:17:43.575Z,99.99
2018-12-01T01:18:43.552Z,99.99
2018-12-01T01:19:43.351Z,99.99
2018-12-01T01:20:43.556Z,99.99
2018-12-01T01:21:43.281Z,99.99
2018-12-01T01:22:43.527Z,99.99
2018-12-01T01:23:43.517Z,99.99
2018-12-01T01:24:43.514Z,99.99
2018-12-01T01:25:43.514Z,99.99
2018-12-01T01:26:43.246Z,99.99
2018-12-01T01:27:43.234Z,99.99
2018-12-01T01:28:43.233Z,99.99
2018-12-01T01:29:43.220Z,99.99
2018-12-01T01:30:43.467Z,99.99
2018-12-01T01:31:43.220Z,99.99
2018-12-01T01:32:43.257Z,99.99
2018-12-01T01:33:43.458Z,99.99
2018-12-01T01:34:43.438Z,99.99
2018-12-01T01:35:43.429Z,99.99
2018-12-01T01:36:43.422Z,99.99
2018-12-01T01:37:43.415Z,99.99
2018-12-01T01:38:43.419Z,99.99
2018-12-01T01:39:43.152Z,99.99
2018-12-01T01:40:43.148Z,99.99
2018-12-01T01:41:43.384Z,99.99
2018-12-01T01:42:43.382Z,99.99
2018-12-01T01:43:44.190Z,99.99
2018-12-01T01:44:43.377Z,99.99
2018-12-01T01:45:43.372Z,99.99
2018-12-01T01:46:43.127Z,99.99
2018-12-01T01:47:43.109Z,99.99
2018-12-01T01:48:43.094Z,99.99
2018-12-01T01:49:43.334Z,99.99
2018-12-01T01:50:43.327Z,99.99
2018-12-01T01:51:43.324Z,99.99
2018-12-01T01:52:43.323Z,99.99
2018-12-01T01:53:43.065Z,99.99
2018-12-01T01:54:43.311Z,99.99
2018-12-01T01:55:43.293Z,99.99
2018-12-01T01:56:43.303Z,99.99
2018-12-01T01:57:43.034Z,99.99
2018-12-01T01:58:43.275Z,99.99
2018-12-01T01:59:43.272Z,99.99
2018-12-01T02:00:43.020Z,99.99
2018-12-01T02:01:43.251Z,99.99
2018-12-01T02:02:42.998Z,99.99
2018-12-01T02:03:43.232Z,99.99
2018-12-01T02:04:42.992Z,99.99
2018-12-01T02:05:43.225Z,99.99
2018-12-01T02:06:43.208Z,99.99
2018-12-01T02:07:43.202Z,99.99
2018-12-01T02:08:43.221Z,99.99
2018-12-01T02:09:42.954Z,99.99
2018-12-01T02:10:42.970Z,99.99
2018-12-01T02:11:43.186Z,99.99
2018-12-01T02:12:43.186Z,99.99
2018-12-01T02:13:43.170Z,99.99
2018-12-01T02:14:43.202Z,99.99
2018-12-01T02:15:43.158Z,99.99
2018-12-01T02:16:43.160Z,99.99
2018-12-01T02:17:42.890Z,99.99
2018-12-01T02:18:42.890Z,99.99
2018-12-01T02:19:43.130Z,99.99
2018-12-01T02:20:43.123Z,99.99
2018-12-01T02:21:42.872Z,99.99
2018-12-01T02:22:43.115Z,99.99
2018-12-01T02:23:43.105Z,99.99
2018-12-01T02:24:42.847Z,99.99
2018-12-01T02:25:42.845Z,99.99
2018-12-01T02:26:42.831Z,99.99
2018-12-01T02:27:43.077Z,99.99
2018-12-01T02:28:43.078Z,99.99
2018-12-01T02:29:43.060Z,99.99
2018-12-01T02:30:43.081Z,99.99
2018-12-01T02:31:43.052Z,99.99
2018-12-01T02:32:43.062Z,99.99
2018-12-01T02:33:43.031Z,99.99
2018-12-01T02:34:43.025Z,99.99
2018-12-01T02:35:43.021Z,99.99
2018-12-01T02:36:43.022Z,99.99
2018-12-01T02:37:43.016Z,99.99
2018-12-01T02:38:42.758Z,99.99
2018-12-01T02:39:42.771Z,99.99
2018-12-01T02:40:42.750Z,99.99
2018-12-01T02:41:42.984Z,99.99
2018-12-01T02:42:42.976Z,99.99
2018-12-01T02:43:42.965Z,99.99
2018-12-01T02:44:42.960Z,99.99
2018-12-01T02:45:42.949Z,99.99
2018-12-01T02:46:42.959Z,99.99
2018-12-01T02:47:43.026Z,99.99
2018-12-01T02:48:42.951Z,99.99
2018-12-01T02:49:42.931Z,99.99
2018-12-01T02:50:43.727Z,99.99
2018-12-01T02:51:42.908Z,99.99
2018-12-01T02:52:42.655Z,99.99
2018-12-01T02:53:42.663Z,99.99
2018-12-01T02:54:42.885Z,99.99
2018-12-01T02:55:42.878Z,99.99
2018-12-01T02:56:42.628Z,99.99
2018-12-01T02:57:42.877Z,99.99
2018-12-01T02:58:42.877Z,99.99
2018-12-01T02:59:42.858Z,99.99
2018-12-01T03:00:42.616Z,99.99
2018-12-01T03:01:42.843Z,99.99
2018-12-01T03:02:42.840Z,99.99
2018-12-01T03:03:42.585Z,99.99
2018-12-01T03:04:42.834Z,99.99
2018-12-01T03:05:42.824Z,99.99
2018-12-01T03:06:42.814Z,99.99
2018-12-01T03:07:42.806Z,99.99
2018-12-01T03:08:42.550Z,99.99
2018-12-01T03:09:42.545Z,99.99
2018-12-01T03:10:42.538Z,99.99
2018-12-01T03:11:42.777Z,99.99
2018-12-01T03:12:42.776Z,99.99
2018-12-01T03:13:42.777Z,99.99
2018-12-01T03:14:42.761Z,99.99
2018-12-01T03:15:42.761Z,99.99
2018-12-01T03:16:42.746Z,99.99
2018-12-01T03:17:42.735Z,99.99
2018-12-01T03:18:42.790Z,99.99
2018-12-01T03:19:42.481Z,99.99
2018-12-01T03:20:42.479Z,99.99
2018-12-01T03:21:42.710Z,99.99
2018-12-01T03:22:42.709Z,99.99
2018-12-01T03:23:42.695Z,99.99
2018-12-01T03:24:42.691Z,99.99
2018-12-01T03:25:42.451Z,99.99
2018-12-01T03:26:42.432Z,99.99
2018-12-01T03:27:42.421Z,99.99
2018-12-01T03:28:42.413Z,99.99
2018-12-01T03:29:42.410Z,99.99
2018-12-01T03:30:42.400Z,99.99
2018-12-01T03:31:42.665Z,99.99
2018-12-01T03:32:42.388Z,99.99
2018-12-01T03:33:42.635Z,99.99
2018-12-01T03:34:42.625Z,99.99
2018-12-01T03:35:42.623Z,99.99
2018-12-01T03:36:42.607Z,99.99
2018-12-01T03:37:42.598Z,99.99
2018-12-01T03:38:42.629Z,99.99
2018-12-01T03:39:42.589Z,99.99
2018-12-01T03:40:42.585Z,99.99
2018-12-01T03:41:42.578Z,99.99
2018-12-01T03:42:42.566Z,99.99
2018-12-01T03:43:42.548Z,99.99
2018-12-01T03:44:42.560Z,99.99
2018-12-01T03:45:42.548Z,99.99
2018-12-01T03:46:42.540Z,99.99
2018-12-01T03:47:42.274Z,99.99
2018-12-01T03:48:42.531Z,99.99
2018-12-01T03:49:42.256Z,99.99
2018-12-01T03:50:42.503Z,99.99
2018-12-01T03:51:42.253Z,99.99
2018-12-01T03:52:42.487Z,99.99
2018-12-01T03:53:42.482Z,99.99
2018-12-01T03:54:42.240Z,99.99
2018-12-01T03:55:42.231Z,99.99
2018-12-01T03:56:42.211Z,99.99
2018-12-01T03:57:42.208Z,99.99
2018-12-01T03:58:42.196Z,99.99
2018-12-01T03:59:42.448Z,99.99
2018-12-01T04:00:42.431Z,99.99
2018-12-01T04:01:42.427Z,99.99
2018-12-01T04:02:42.192Z,99.99
2018-12-01T04:03:42.162Z,99.99
2018-12-01T04:04:42.412Z,99.99
2018-12-01T04:05:42.385Z,99.99
2018-12-01T04:06:42.149Z,99.99
2018-12-01T04:07:42.140Z,99.99
2018-12-01T04:08:42.376Z,99.99
2018-12-01T04:09:42.362Z,99.99
2018-12-01T04:10:42.362Z,99.99
2018-12-01T04:11:42.348Z,99.99
2018-12-01T04:12:42.345Z,99.99
2018-12-01T04:13:42.085Z,99.99
2018-12-01T04:14:42.074Z,99.99
2018-12-01T04:15:42.325Z,99.99
2018-12-01T04:16:42.316Z,99.99
2018-12-01T04:17:42.306Z,99.99
2018-12-01T04:18:42.046Z,99.99
2018-12-01T04:19:42.285Z,99.99
2018-12-01T04:20:42.028Z,99.99
2018-12-01T04:21:42.529Z,99.99
2018-12-01T04:22:42.023Z,99.99
2018-12-01T04:23:42.023Z,99.99
2018-12-01T04:24:42.248Z,99.99
2018-12-01T04:25:42.249Z,99.99
2018-12-01T04:26:42.239Z,99.99
2018-12-01T04:27:41.986Z,99.99
2018-12-01T04:28:42.217Z,99.99
2018-12-01T04:29:42.213Z,99.99
2018-12-01T04:30:42.223Z,99.99
2018-12-01T04:31:42.197Z,99.99
2018-12-01T04:32:41.943Z,99.99
2018-12-01T04:33:42.192Z,99.99
2018-12-01T04:34:41.930Z,99.99
2018-12-01T04:35:42.165Z,99.99
2018-12-01T04:36:41.914Z,99.99
2018-12-01T04:37:42.158Z,99.99
2018-12-01T04:38:41.898Z,99.99
2018-12-01T04:39:41.890Z,99.99
2018-12-01T04:40:42.151Z,99.99
2018-12-01T04:41:42.127Z,99.99
2018-12-01T04:42:41.882Z,99.99
2018-12-01T04:43:41.880Z,99.99
2018-12-01T04:44:42.111Z,99.99
2018-12-01T04:45:42.109Z,99.99
2018-12-01T04:46:42.099Z,99.99
2018-12-01T04:47:42.082Z,99.99
2018-12-01T04:48:41.838Z,99.99
2018-12-01T04:49:42.066Z,99.99
2018-12-01T04:50:42.078Z,99.99
2018-12-01T04:51:43.661Z,99.99
2018-12-01T04:52:41.795Z,99.99
2018-12-01T04:53:41.790Z,99.99
2018-12-01T04:54:42.042Z,99.99
2018-12-01T04:55:42.021Z,99.99
2018-12-01T04:56:42.027Z,99.99
2018-12-01T04:57:42.017Z,99.99
2018-12-01T04:58:41.759Z,99.99
2018-12-01T04:59:41.752Z,99.99
2018-12-01T05:00:41.996Z,99.99
2018-12-01T05:01:41.992Z,99.99
2018-12-01T05:02:41.987Z,99.99
2018-12-01T05:03:41.963Z,99.99
2018-12-01T05:04:41.712Z,99.99
2018-12-01T05:05:41.710Z,99.99
2018-12-01T05:06:41.702Z,99.99
2018-12-01T05:07:41.941Z,99.99
2018-12-01T05:08:41.677Z,99.99
2018-12-01T05:09:41.920Z,99.99
2018-12-01T05:10:41.700Z,99.99
2018-12-01T05:11:41.904Z,99.99
2018-12-01T05:12:41.660Z,99.99
2018-12-01T05:13:41.897Z,99.99
2018-12-01T05:14:41.661Z,99.99
2018-12-01T05:15:41.882Z,99.99
2018-12-01T05:16:41.873Z,99.99
2018-12-01T05:17:41.865Z,99.99
2018-12-01T05:18:41.851Z,99.99
2018-12-01T05:19:41.853Z,99.99
2018-12-01T05:20:41.604Z,99.99
2018-12-01T05:21:41.842Z,99.99
2018-12-01T05:22:41.692Z,99.99
2018-12-01T05:23:41.822Z,99.99
2018-12-01T05:24:41.578Z,99.99
2018-12-01T05:25:41.556Z,99.99
2018-12-01T05:26:41.575Z,99.99
2018-12-01T05:27:41.799Z,99.99
2018-12-01T05:28:41.539Z,99.99
2018-12-01T05:29:41.582Z,99.99
2018-12-01T05:30:41.773Z,99.99
2018-12-01T05:31:41.539Z,99.99
2018-12-01T05:32:41.754Z,99.99
2018-12-01T05:33:41.746Z,99.99
2018-12-01T05:34:41.496Z,99.99
2018-12-01T05:35:41.744Z,99.99
2018-12-01T05:36:41.732Z,99.99
2018-12-01T05:37:41.479Z,99.99
2018-12-01T05:38:41.734Z,99.99
2018-12-01T05:39:41.756Z,99.99
2018-12-01T05:40:41.692Z,99.99
2018-12-01T05:41:41.690Z,99.99
2018-12-01T05:42:41.705Z,99.99
2018-12-01T05:43:41.702Z,99.99
2018-12-01T05:44:41.674Z,99.99
2018-12-01T05:45:41.661Z,99.99
2018-12-01T05:46:41.649Z,99.99
2018-12-01T05:47:41.649Z,99.99
2018-12-01T05:48:41.639Z,99.99
2018-12-01T05:49:41.383Z,99.99
2018-12-01T05:50:41.672Z,99.99
2018-12-01T05:51:41.386Z,99.99
2018-12-01T05:52:41.369Z,99.99
2018-12-01T05:53:41.630Z,99.99
2018-12-01T05:54:41.345Z,99.99
2018-12-01T05:55:41.587Z,99.99
2018-12-01T05:56:41.342Z,99.99
2018-12-01T05:57:41.572Z,99.99
2018-12-01T05:58:41.307Z,99.99
2018-12-01T05:59:41.581Z,99.99
2018-12-01T06:00:41.341Z,99.99
2018-12-01T06:01:41.555Z,99.99
2018-12-01T06:02:41.291Z,99.99
2018-12-01T06:03:41.271Z,99.99
2018-12-01T06:04:41.275Z,99.99
2018-12-01T06:05:41.510Z,99.99
2018-12-01T06:06:41.245Z,99.99
2018-12-01T06:07:41.486Z,99.99
2018-12-01T06:08:41.247Z,99.99
2018-12-01T06:09:41.473Z,99.99
2018-12-01T06:10:41.215Z,99.99
2018-12-01T06:11:41.455Z,99.99
2018-12-01T06:12:41.458Z,99.99
2018-12-01T06:13:41.436Z,99.99
2018-12-01T06:14:41.436Z,99.99
2018-12-01T06:15:41.429Z,99.99
2018-12-01T06:16:41.433Z,99.99
2018-12-01T06:17:41.430Z,99.99
2018-12-01T06:18:41.193Z,99.99
2018-12-01T06:19:41.404Z,99.99
2018-12-01T06:20:41.163Z,99.99
2018-12-01T06:21:41.374Z,99.99
2018-12-01T06:22:41.113Z,99.99
2018-12-01T06:23:41.350Z,99.99
2018-12-01T06:24:41.344Z,99.99
2018-12-01T06:25:41.354Z,99.99
2018-12-01T06:26:41.102Z,99.99
2018-12-01T06:27:41.339Z,99.99
2018-12-01T06:28:41.320Z,99.99
2018-12-01T06:29:41.317Z,99.99
2018-12-01T06:30:41.300Z,99.99
2018-12-01T06:31:41.045Z,99.99
2018-12-01T06:32:41.038Z,99.99
2018-12-01T06:33:41.275Z,99.99
2018-12-01T06:34:41.018Z,99.99
2018-12-01T06:35:41.259Z,99.99
2018-12-01T06:36:40.999Z,99.99
2018-12-01T06:37:40.996Z,99.99
2018-12-01T06:38:40.986Z,99.99
2018-12-01T06:39:41.239Z,99.99
2018-12-01T06:40:41.224Z,99.99
2018-12-01T06:41:40.970Z,99.99
2018-12-01T06:42:41.210Z,99.99
2018-12-01T06:43:41.193Z,99.99
2018-12-01T06:44:41.179Z,99.99
2018-12-01T06:45:41.197Z,99.99
2018-12-01T06:46:40.914Z,99.99
2018-12-01T06:47:41.188Z,99.99
2018-12-01T06:48:41.146Z,99.99
2018-12-01T06:49:41.138Z,99.99
2018-12-01T06:50:40.895Z,99.99
2018-12-01T06:51:41.123Z,99.99
2018-12-01T06:52:42.168Z,99.99
2018-12-01T06:53:40.874Z,99.99
2018-12-01T06:54:41.091Z,99.99
2018-12-01T06:55:41.091Z,99.99
2018-12-01T06:56:40.836Z,99.99
2018-12-01T06:57:40.829Z,99.99
2018-12-01T06:58:40.815Z,99.99
2018-12-01T06:59:41.064Z,99.99
2018-12-01T07:00:41.048Z,99.99
2018-12-01T07:01:41.039Z,99.99
2018-12-01T07:02:41.029Z,99.99
2018-12-01T07:03:41.012Z,99.99
2018-12-01T07:04:40.756Z,99.99
2018-12-01T07:05:41.010Z,99.99
2018-12-01T07:06:40.750Z,99.99
2018-12-01T07:07:40.746Z,99.99
2018-12-01T07:08:40.980Z,99.99
2018-12-01T07:09:40.971Z,99.99
2018-12-01T07:10:40.716Z,99.99
2018-12-01T07:11:40.949Z,99.99
2018-12-01T07:12:40.704Z,99.99
2018-12-01T07:13:40.938Z,99.99
2018-12-01T07:14:40.692Z,99.99
2018-12-01T07:15:40.915Z,99.99
2018-12-01T07:16:40.984Z,99.99
2018-12-01T07:17:40.906Z,99.99
2018-12-01T07:18:40.646Z,99.99
2018-12-01T07:19:40.697Z,99.99
2018-12-01T07:20:40.631Z,99.99
2018-12-01T07:21:40.862Z,99.99
2018-12-01T07:22:40.615Z,99.99
2018-12-01T07:23:40.856Z,99.99
2018-12-01T07:24:40.647Z,99.99
2018-12-01T07:25:40.601Z,99.99
2018-12-01T07:26:40.582Z,99.99
2018-12-01T07:27:40.634Z,99.99
2018-12-01T07:28:40.559Z,99.99
2018-12-01T07:29:40.554Z,99.99
2018-12-01T07:30:40.544Z,99.99
2018-12-01T07:31:40.545Z,99.99
2018-12-01T07:32:40.777Z,99.99
2018-12-01T07:33:40.524Z,99.99
2018-12-01T07:34:40.764Z,99.99
2018-12-01T07:35:40.507Z,99.99
2018-12-01T07:36:40.516Z,99.99
2018-12-01T07:37:40.760Z,99.99
2018-12-01T07:38:40.751Z,99.99
2018-12-01T07:39:40.737Z,99.99
2018-12-01T07:40:40.721Z,99.99
2018-12-01T07:41:40.702Z,99.99
2018-12-01T07:42:40.699Z,99.99
2018-12-01T07:43:40.702Z,99.99
2018-12-01T07:44:40.433Z,99.99
2018-12-01T07:45:40.673Z,99.99
2018-12-01T07:46:40.667Z,99.99
2018-12-01T07:47:40.680Z,99.99
2018-12-01T07:48:40.667Z,99.99
2018-12-01T07:49:40.637Z,99.99
2018-12-01T07:50:40.387Z,99.99
2018-12-01T07:51:40.618Z,99.99
2018-12-01T07:52:40.369Z,99.99
2018-12-01T07:53:40.604Z,99.99
2018-12-01T07:54:40.348Z,99.99
2018-12-01T07:55:40.341Z,99.99
2018-12-01T07:56:40.626Z,99.99
2018-12-01T07:57:40.573Z,99.99
2018-12-01T07:58:40.323Z,99.99
2018-12-01T07:59:40.316Z,99.99
2018-12-01T08:00:40.559Z,99.99
2018-12-01T08:01:40.305Z,99.99
2018-12-01T08:02:40.291Z,99.99
2018-12-01T08:03:40.283Z,99.99
2018-12-01T08:04:40.521Z,99.99
2018-12-01T08:05:40.264Z,99.99
2018-12-01T08:06:40.260Z,99.99
2018-12-01T08:07:40.252Z,99.99
2018-12-01T08:08:40.494Z,99.99
2018-12-01T08:09:40.254Z,99.99
2018-12-01T08:10:40.469Z,99.99
2018-12-01T08:11:40.506Z,99.99
2018-12-01T08:12:40.471Z,99.99
2018-12-01T08:13:40.457Z,99.99
2018-12-01T08:14:40.457Z,99.99
2018-12-01T08:15:40.442Z,99.99
2018-12-01T08:16:40.431Z,99.99
2018-12-01T08:17:40.443Z,99.99
2018-12-01T08:18:40.413Z,99.99
2018-12-01T08:19:40.442Z,99.99
2018-12-01T08:20:40.408Z,99.99
2018-12-01T08:21:40.147Z,99.99
2018-12-01T08:22:40.402Z,99.99
2018-12-01T08:23:40.391Z,99.99
2018-12-01T08:24:40.377Z,99.99
2018-12-01T08:25:40.376Z,99.99
2018-12-01T08:26:40.124Z,99.99
2018-12-01T08:27:40.355Z,99.99
2018-12-01T08:28:40.341Z,99.99
2018-12-01T08:29:40.336Z,99.99
2018-12-01T08:30:40.081Z,99.99
2018-12-01T08:31:40.338Z,99.99
2018-12-01T08:32:40.317Z,99.99
2018-12-01T08:33:40.062Z,99.99
2018-12-01T08:34:40.059Z,99.99
2018-12-01T08:35:40.300Z,99.99
2018-12-01T08:36:40.071Z,99.99
2018-12-01T08:37:40.053Z,99.99
2018-12-01T08:38:40.277Z,99.99
2018-12-01T08:39:40.267Z,99.99
2018-12-01T08:40:40.268Z,99.99
2018-12-01T08:41:40.010Z,99.99
2018-12-01T08:42:40.245Z,99.99
2018-12-01T08:43:39.997Z,99.99
2018-12-01T08:44:40.232Z,99.99
2018-12-01T08:45:39.982Z,99.99
2018-12-01T08:46:39.992Z,99.99
2018-12-01T08:47:39.979Z,99.99
2018-12-01T08:48:40.213Z,99.99
2018-12-01T08:49:40.210Z,99.99
2018-12-01T08:50:39.945Z,99.99
2018-12-01T08:51:40.189Z,99.99
2018-12-01T08:52:40.219Z,99.99
2018-12-01T08:53:40.170Z,99.99
2018-12-01T08:54:40.180Z,99.99
2018-12-01T08:55:39.919Z,99.99
2018-12-01T08:56:40.232Z,99.99
2018-12-01T08:57:40.150Z,99.99
2018-12-01T08:58:39.919Z,99.99
2018-12-01T08:59:39.906Z,99.99
2018-12-01T09:00:39.891Z,99.99
2018-12-01T09:01:40.141Z,99.99
2018-12-01T09:02:40.147Z,99.99
2018-12-01T09:03:40.113Z,99.99
2018-12-01T09:04:40.111Z,99.99
2018-12-01T09:05:40.123Z,99.99
2018-12-01T09:06:40.101Z,99.99
2018-12-01T09:07:40.116Z,99.99
2018-12-01T09:08:40.113Z,99.99
2018-12-01T09:09:40.093Z,99.99
2018-12-01T09:10:39.843Z,99.99
2018-12-01T09:11:40.082Z,99.99
2018-12-01T09:12:39.823Z,99.99
2018-12-01T09:13:39.811Z,99.99
2018-12-01T09:14:40.056Z,99.99
2018-12-01T09:15:40.058Z,99.99
2018-12-01T09:16:40.045Z,99.99
2018-12-01T09:17:40.036Z,99.99
2018-12-01T09:18:40.046Z,99.99
2018-12-01T09:19:39.790Z,99.99
2018-12-01T09:20:40.045Z,99.99
2018-12-01T09:21:40.019Z,99.99
2018-12-01T09:22:40.015Z,99.99
2018-12-01T09:23:40.005Z,99.99
2018-12-01T09:24:39.998Z,99.99
2018-12-01T09:25:39.988Z,99.99
2018-12-01T09:26:39.988Z,99.99
2018-12-01T09:27:39.981Z,99.99
2018-12-01T09:28:39.981Z,99.99
2018-12-01T09:29:39.984Z,99.99
2018-12-01T09:30:39.963Z,99.99
2018-12-01T09:31:39.961Z,99.99
2018-12-01T09:32:39.963Z,99.99
2018-12-01T09:33:39.710Z,99.99
2018-12-01T09:34:39.698Z,99.99
2018-12-01T09:35:39.795Z,99.99
2018-12-01T09:36:39.688Z,99.99
2018-12-01T09:37:39.929Z,99.99
2018-12-01T09:38:39.673Z,99.99
2018-12-01T09:39:39.680Z,99.99
2018-12-01T09:40:39.916Z,99.99
2018-12-01T09:41:39.665Z,99.99
2018-12-01T09:42:39.655Z,99.99
2018-12-01T09:43:39.905Z,99.99
2018-12-01T09:44:39.665Z,99.99
2018-12-01T09:45:39.883Z,99.99
2018-12-01T09:46:39.879Z,99.99
2018-12-01T09:47:39.896Z,99.99
2018-12-01T09:48:39.625Z,99.99
2018-12-01T09:49:39.875Z,99.99
2018-12-01T09:50:39.637Z,99.99
2018-12-01T09:51:39.856Z,99.99
2018-12-01T09:52:39.612Z,99.99
2018-12-01T09:53:39.846Z,99.99
2018-12-01T09:54:39.849Z,99.99
2018-12-01T09:55:39.841Z,99.99
2018-12-01T09:56:39.586Z,99.99
2018-12-01T09:57:39.834Z,99.99
2018-12-01T09:58:39.827Z,99.99
2018-12-01T09:59:39.819Z,99.99
2018-12-01T10:00:39.829Z,99.99
2018-12-01T10:01:39.814Z,99.99
2018-12-01T10:02:39.822Z,99.99
2018-12-01T10:03:39.802Z,99.99
2018-12-01T10:04:39.552Z,99.99
2018-12-01T10:05:39.801Z,99.99
2018-12-01T10:06:39.552Z,99.99
2018-12-01T10:07:39.544Z,99.99
2018-12-01T10:08:39.533Z,99.99
2018-12-01T10:09:39.521Z,99.99
2018-12-01T10:10:39.782Z,99.99
2018-12-01T10:11:39.780Z,99.99
2018-12-01T10:12:39.516Z,99.99
2018-12-01T10:13:39.509Z,99.99
2018-12-01T10:14:39.506Z,99.99
2018-12-01T10:15:39.526Z,99.99
2018-12-01T10:16:39.754Z,99.99
2018-12-01T10:17:39.493Z,99.99
2018-12-01T10:18:39.727Z,99.99
2018-12-01T10:19:39.477Z,99.99
2018-12-01T10:20:41.170Z,99.99
2018-12-01T10:21:39.740Z,99.99
2018-12-01T10:22:39.463Z,99.99
2018-12-01T10:23:39.708Z,99.99
2018-12-01T10:24:39.455Z,99.99
2018-12-01T10:25:39.704Z,99.99
2018-12-01T10:26:39.467Z,99.99
2018-12-01T10:27:39.704Z,99.99
2018-12-01T10:28:39.682Z,99.99
2018-12-01T10:29:39.683Z,99.99
2018-12-01T10:30:39.675Z,99.99
2018-12-01T10:31:39.671Z,99.99
2018-12-01T10:32:39.800Z,99.99
2018-12-01T10:33:39.411Z,99.99
2018-12-01T10:34:39.581Z,99.99
2018-12-01T10:35:39.438Z,99.99
2018-12-01T10:36:39.468Z,99.99
2018-12-01T10:37:39.652Z,99.99
2018-12-01T10:38:39.389Z,99.99
2018-12-01T10:39:39.634Z,99.99
2018-12-01T10:40:39.626Z,99.99
2018-12-01T10:41:39.390Z,99.99
2018-12-01T10:42:39.372Z,99.99
2018-12-01T10:43:39.673Z,99.99
2018-12-01T10:44:39.381Z,99.99
2018-12-01T10:45:39.363Z,99.99
2018-12-01T10:46:39.616Z,99.99
2018-12-01T10:47:39.651Z,99.99
2018-12-01T10:48:39.414Z,99.65
2018-12-01T10:49:39.602Z,99.65
2018-12-01T10:50:39.704Z,99.99
2018-12-01T10:51:39.342Z,99.94
2018-12-01T10:52:39.338Z,99.27
2018-12-01T10:53:39.583Z,99.99
2018-12-01T10:54:39.871Z,99.99
2018-12-01T10:55:39.322Z,99.99
2018-12-01T10:56:39.320Z,99.99
2018-12-01T10:57:39.310Z,99.99
2018-12-01T10:58:39.569Z,99.99
2018-12-01T10:59:39.559Z,99.84
2018-12-01T11:00:39.304Z,99.99
2018-12-01T11:01:39.307Z,99.99
2018-12-01T11:02:39.547Z,99.99
2018-12-01T11:03:39.305Z,99.99
2018-12-01T11:04:39.548Z,99.99
2018-12-01T11:05:39.290Z,99.99
2018-12-01T11:06:39.283Z,99.75
2018-12-01T11:07:39.593Z,99.99
2018-12-01T11:08:39.516Z,99.27
2018-12-01T11:09:39.517Z,98.32
2018-12-01T11:10:39.517Z,97.46
2018-12-01T11:11:39.516Z,97.65
2018-12-01T11:12:39.500Z,97.36
2018-12-01T11:13:39.498Z,96.75
2018-12-01T11:14:40.292Z,95.89
2018-12-01T11:15:39.500Z,96.08
2018-12-01T11:16:39.505Z,95.89
2018-12-01T11:17:39.481Z,95.51
2018-12-01T11:18:39.475Z,96.08
2018-12-01T11:19:39.468Z,95.41
2018-12-01T11:20:39.464Z,95.03
2018-12-01T11:21:39.228Z,95.61
2018-12-01T11:22:39.219Z,94.56
2018-12-01T11:23:39.464Z,95.61
2018-12-01T11:24:40.274Z,95.12
2018-12-01T11:25:39.226Z,94.08
2018-12-01T11:26:39.444Z,92.84
2018-12-01T11:27:39.445Z,92.36
2018-12-01T11:28:39.191Z,92.84
2018-12-01T11:29:39.475Z,92.46
2018-12-01T11:30:39.741Z,92.46
2018-12-01T11:31:39.535Z,92.36
2018-12-01T11:32:39.337Z,92.08
2018-12-01T11:33:39.433Z,92.55
2018-12-01T11:34:39.515Z,92.74
2018-12-01T11:35:39.562Z,92.08
2018-12-01T11:36:39.432Z,92.55
2018-12-01T11:37:39.159Z,92.65
2018-12-01T11:38:39.411Z,92.46
2018-12-01T11:39:39.418Z,91.31
2018-12-01T11:40:39.161Z,92.36
2018-12-01T11:41:39.253Z,94.27
2018-12-01T11:42:39.851Z,95.03
2018-12-01T11:43:39.266Z,94.84
2018-12-01T11:44:39.502Z,94.93
2018-12-01T11:45:39.163Z,93.7
2018-12-01T11:46:39.512Z,92.74
2018-12-01T11:47:39.352Z,92.27
2018-12-01T11:48:39.372Z,91.79
2018-12-01T11:49:39.529Z,91.98
2018-12-01T11:50:39.372Z,92.27
2018-12-01T11:51:39.172Z,92.27
2018-12-01T11:52:39.167Z,91.31
2018-12-01T11:53:39.162Z,91.22
2018-12-01T11:54:39.107Z,91.6
2018-12-01T11:55:39.422Z,90.74
2018-12-01T11:56:39.087Z,90.64
2018-12-01T11:57:39.115Z,90.93
2018-12-01T11:58:39.377Z,91.13
2018-12-01T11:59:39.109Z,91.31
2018-12-01T12:00:39.322Z,91.5
2018-12-01T12:01:39.215Z,91.22
2018-12-01T12:02:39.106Z,90.64
2018-12-01T12:03:39.170Z,91.22
2018-12-01T12:04:39.310Z,90.84
2018-12-01T12:05:39.360Z,91.22
2018-12-01T12:06:39.055Z,91.22
2018-12-01T12:07:39.362Z,91.31
2018-12-01T12:08:39.310Z,91.6
2018-12-01T12:09:39.294Z,90.45
2018-12-01T12:10:39.314Z,89.79
2018-12-01T12:11:39.280Z,89.69
2018-12-01T12:12:39.066Z,89.98
2018-12-01T12:13:39.051Z,90.84
2018-12-01T12:14:39.198Z,89.98
2018-12-01T12:15:39.013Z,89.79
2018-12-01T12:16:39.255Z,90.08
2018-12-01T12:17:39.006Z,89.07
2018-12-01T12:18:39.001Z,87.88
2018-12-01T12:19:39.606Z,88.07
2018-12-01T12:20:39.257Z,88.78
2018-12-01T12:21:39.253Z,88.59
2018-12-01T12:22:38.993Z,87.83
2018-12-01T12:23:39.258Z,87.98
2018-12-01T12:24:39.283Z,88.02
2018-12-01T12:25:40.411Z,88.74
2018-12-01T12:26:39.278Z,88.36
2018-12-01T12:27:38.973Z,87.88
2018-12-01T12:28:39.020Z,87.69
2018-12-01T12:29:39.343Z,88.26
2018-12-01T12:30:39.212Z,88.07
2018-12-01T12:31:39.085Z,88.26
2018-12-01T12:32:39.286Z,88.26
2018-12-01T12:33:39.199Z,87.21
2018-12-01T12:34:39.329Z,87.31
2018-12-01T12:35:38.948Z,87.79
2018-12-01T12:36:39.234Z,87.21
2018-12-01T12:37:39.025Z,87.21
2018-12-01T12:38:39.188Z,87.31
2018-12-01T12:39:39.192Z,87.5
2018-12-01T12:40:39.257Z,87.4
2018-12-01T12:41:38.943Z,87.12
2018-12-01T12:42:39.163Z,86.65
2018-12-01T12:43:38.973Z,87.35
2018-12-01T12:44:39.287Z,87.74
2018-12-01T12:45:39.202Z,87.83
2018-12-01T12:46:39.475Z,87.26
2018-12-01T12:47:39.158Z,86.4
2018-12-01T12:48:38.897Z,86.07
2018-12-01T12:49:38.906Z,85.97
2018-12-01T12:50:39.169Z,86.16
2018-12-01T12:51:39.136Z,86.74
2018-12-01T12:52:39.127Z,87.31